Time;durP1;ratioP1;P1;durP2;ratioP2;P2;SDS_P1;SDS_P2;PMS_P1;PMS_P2;Temp;Humidity;BMP_temperature;BMP_pressure;BME280_temperature;BME280_humidity;BME280_pressure;Samples;Min_cycle;Max_cycle;Signal;HPM_P1;HPM_P2
2023/09/14 00:00:35;;;;;;;1.67;1.20;;;19.90;66.90;;;;;;4995951;28;20096;-76
2023/09/14 00:03:02;;;;;;;1.80;1.10;;;19.80;66.80;;;;;;5012508;28;20045;-77
2023/09/14 00:05:29;;;;;;;1.48;1.20;;;19.90;67.00;;;;;;5014511;28;20045;-77
2023/09/14 00:07:55;;;;;;;1.92;1.30;;;19.80;66.90;;;;;;5012708;28;20050;-76
2023/09/14 00:10:20;;;;;;;3.38;1.35;;;19.80;66.90;;;;;;4995725;28;20066;-76
2023/09/14 00:12:46;;;;;;;1.45;1.10;;;19.80;66.90;;;;;;4979790;28;20034;-76
2023/09/14 00:15:12;;;;;;;1.15;0.98;;;19.80;66.90;;;;;;4996033;28;20034;-78
2023/09/14 00:17:38;;;;;;;1.60;1.10;;;19.70;66.90;;;;;;4979414;28;20096;-76
2023/09/14 00:20:06;;;;;;;1.50;1.25;;;19.80;67.00;;;;;;4995777;28;20160;-77
2023/09/14 00:22:32;;;;;;;2.33;1.33;;;19.70;67.00;;;;;;4995608;28;20085;-76
2023/09/14 00:24:58;;;;;;;1.85;1.30;;;19.70;67.00;;;;;;4980799;28;20030;-77
2023/09/14 00:27:24;;;;;;;1.65;1.15;;;19.70;67.00;;;;;;4999375;28;20041;-77
2023/09/14 00:29:49;;;;;;;2.47;1.20;;;19.70;67.10;;;;;;4999651;28;20069;-77
2023/09/14 00:32:15;;;;;;;2.25;1.15;;;19.60;67.00;;;;;;4983416;28;20038;-77
2023/09/14 00:34:41;;;;;;;1.88;1.27;;;19.70;67.10;;;;;;5017196;28;20030;-76
2023/09/14 00:37:06;;;;;;;2.33;1.30;;;19.60;67.10;;;;;;4967274;28;20457;-78
2023/09/14 00:39:32;;;;;;;3.03;1.13;;;19.60;67.10;;;;;;5015782;28;20045;-77
2023/09/14 00:41:58;;;;;;;2.15;1.38;;;19.60;67.80;;;;;;4999632;28;20022;-75
2023/09/14 00:44:23;;;;;;;3.17;1.45;;;19.60;67.10;;;;;;4983520;28;20038;-77
2023/09/14 00:46:49;;;;;;;1.73;1.40;;;19.60;67.20;;;;;;4999272;28;20456;-76
2023/09/14 00:49:15;;;;;;;2.42;1.30;;;19.60;67.20;;;;;;4983173;28;20034;-77
2023/09/14 00:51:41;;;;;;;2.75;1.40;;;19.50;67.10;;;;;;4999781;28;20026;-77
2023/09/14 00:54:08;;;;;;;2.97;1.40;;;19.60;67.20;;;;;;4999216;28;20111;-77
2023/09/14 00:56:33;;;;;;;1.58;1.25;;;19.50;67.20;;;;;;5017379;28;20044;-78
2023/09/14 00:59:00;;;;;;;1.85;1.15;;;19.50;67.20;;;;;;4999319;28;20036;-76
2023/09/14 01:01:26;;;;;;;2.50;1.45;;;19.50;67.20;;;;;;4967047;28;20412;-76
2023/09/14 01:03:53;;;;;;;3.33;1.13;;;19.50;67.90;;;;;;5015414;28;20068;-76
2023/09/14 01:06:20;;;;;;;2.78;1.17;;;19.50;67.30;;;;;;5017194;28;20057;-77
2023/09/14 01:08:45;;;;;;;2.30;1.35;;;19.50;67.30;;;;;;5016872;28;20332;-76
2023/09/14 01:11:11;;;;;;;2.83;1.38;;;19.50;67.30;;;;;;4982814;28;20034;-78
2023/09/14 01:13:48;;;;;;;1.75;1.30;;;19.50;67.30;;;;;;4983292;28;20073;-76
2023/09/14 01:16:23;;;;;;;4.13;1.40;;;19.40;67.30;;;;;;5015537;28;20345;-78
2023/09/14 01:19:13;;;;;;;3.03;1.25;;;19.50;67.40;;;;;;4998896;28;20049;-77
2023/09/14 01:22:26;;;;;;;2.35;1.30;;;19.40;68.00;;;;;;5015419;28;20390;-77
2023/09/14 01:25:04;;;;;;;1.23;1.10;;;19.40;67.40;;;;;;4948772;28;20041;-77
2023/09/14 01:27:31;;;;;;;1.70;1.25;;;19.40;67.40;;;;;;5002777;28;20377;-77
2023/09/14 01:29:58;;;;;;;2.20;1.38;;;19.40;67.40;;;;;;4999620;28;20133;-78
2023/09/14 01:32:25;;;;;;;2.22;1.30;;;19.40;67.40;;;;;;4998561;28;20022;-76
2023/09/14 01:34:52;;;;;;;1.90;1.02;;;19.40;67.40;;;;;;4997109;28;20050;-77
2023/09/14 01:37:18;;;;;;;2.72;1.40;;;19.30;67.40;;;;;;4978962;28;20061;-77
2023/09/14 01:39:45;;;;;;;2.83;1.35;;;19.30;67.30;;;;;;4995075;28;20038;-78
2023/09/14 01:42:12;;;;;;;2.67;1.48;;;19.30;67.40;;;;;;5010988;28;20057;-77
2023/09/14 01:44:38;;;;;;;2.40;1.40;;;19.30;67.40;;;;;;5011427;28;20038;-77
2023/09/14 01:47:04;;;;;;;1.60;1.23;;;19.30;67.40;;;;;;4978901;28;20038;-76
2023/09/14 01:49:30;;;;;;;2.75;1.27;;;19.30;67.40;;;;;;4978715;28;20125;-77
2023/09/14 01:51:56;;;;;;;3.38;1.50;;;19.30;67.40;;;;;;4995648;28;20129;-76
2023/09/14 01:54:21;;;;;;;1.45;1.10;;;19.30;67.40;;;;;;5011158;28;20458;-77
2023/09/14 01:56:48;;;;;;;2.72;1.27;;;19.30;67.40;;;;;;4994800;28;20030;-76
2023/09/14 01:59:14;;;;;;;1.42;1.20;;;19.30;67.40;;;;;;5011005;28;20424;-77
2023/09/14 02:01:40;;;;;;;2.15;1.23;;;19.30;67.40;;;;;;4979215;28;20038;-77
2023/09/14 02:04:06;;;;;;;2.40;1.40;;;19.30;67.40;;;;;;5011128;28;20065;-76
2023/09/14 02:06:32;;;;;;;2.65;1.30;;;19.30;67.50;;;;;;4978829;28;20026;-76
2023/09/14 02:09:00;;;;;;;2.15;1.20;;;19.30;67.50;;;;;;4994621;28;20045;-76
2023/09/14 02:11:26;;;;;;;1.65;1.20;;;19.20;67.40;;;;;;4995257;28;20035;-76
2023/09/14 02:13:51;;;;;;;1.65;1.20;;;19.20;67.50;;;;;;4962437;28;20039;-76
2023/09/14 02:16:17;;;;;;;1.98;1.10;;;19.30;67.50;;;;;;4962153;28;20113;-77
2023/09/14 02:18:44;;;;;;;2.55;1.38;;;19.20;67.40;;;;;;4962355;28;20053;-77
2023/09/14 02:21:11;;;;;;;3.20;1.42;;;19.20;67.40;;;;;;4994497;28;20035;-78
2023/09/14 02:23:36;;;;;;;2.47;1.27;;;19.20;67.50;;;;;;4995066;28;20050;-78
2023/09/14 02:26:02;;;;;;;2.67;1.10;;;19.20;67.50;;;;;;5010579;28;20475;-77
2023/09/14 02:28:28;;;;;;;3.17;1.48;;;19.20;67.50;;;;;;4993957;28;20050;-77
2023/09/14 02:30:54;;;;;;;2.20;1.33;;;19.20;67.50;;;;;;5011033;28;20085;-76
2023/09/14 02:33:20;;;;;;;2.28;1.20;;;19.20;67.50;;;;;;4993927;28;20046;-76
2023/09/14 02:35:50;;;;;;;2.80;1.50;;;19.20;67.50;;;;;;4977651;28;20081;-79
2023/09/14 02:38:17;;;;;;;2.20;1.33;;;19.10;67.50;;;;;;5010402;28;20065;-76
2023/09/14 02:40:43;;;;;;;1.80;1.25;;;19.10;67.50;;;;;;5010131;28;20491;-76
2023/09/14 02:43:09;;;;;;;2.58;1.40;;;19.10;67.50;;;;;;4994675;28;20069;-76
2023/09/14 02:45:35;;;;;;;2.28;1.38;;;19.10;67.50;;;;;;4993923;28;20030;-76
2023/09/14 02:48:00;;;;;;;2.60;1.55;;;19.10;67.50;;;;;;4977087;28;20031;-77
2023/09/14 02:50:26;;;;;;;2.25;1.23;;;19.10;67.50;;;;;;4978251;28;20030;-77
2023/09/14 02:52:52;;;;;;;2.55;1.40;;;19.10;67.60;;;;;;4993356;28;20042;-77
2023/09/14 02:55:18;;;;;;;2.15;1.40;;;19.10;67.60;;;;;;4993841;28;20039;-76
2023/09/14 02:57:44;;;;;;;2.80;1.48;;;19.10;67.60;;;;;;4977204;28;20512;-78
2023/09/14 03:00:16;;;;;;;2.13;1.20;;;19.00;67.50;;;;;;5009943;28;20046;-76
2023/09/14 03:02:43;;;;;;;2.65;1.30;;;19.00;67.60;;;;;;4977444;28;20049;-77
2023/09/14 03:05:09;;;;;;;2.00;1.25;;;19.00;67.60;;;;;;4994362;28;20030;-76
2023/09/14 03:07:35;;;;;;;3.65;1.38;;;19.00;67.60;;;;;;4993682;28;20092;-77
2023/09/14 03:10:01;;;;;;;1.88;1.30;;;18.90;67.50;;;;;;4977302;28;20395;-78
2023/09/14 03:12:27;;;;;;;1.73;1.30;;;19.00;67.60;;;;;;4993231;28;20542;-76
2023/09/14 03:14:52;;;;;;;2.00;1.25;;;18.90;67.60;;;;;;4993306;28;20032;-77
2023/09/14 03:17:18;;;;;;;2.15;1.27;;;18.90;67.60;;;;;;4977477;28;20035;-77
2023/09/14 03:19:44;;;;;;;1.55;1.10;;;18.90;67.60;;;;;;4993377;28;20026;-76
2023/09/14 03:22:10;;;;;;;2.15;1.40;;;18.90;67.60;;;;;;5009861;28;20089;-77
2023/09/14 03:24:36;;;;;;;2.10;1.30;;;18.80;67.50;;;;;;4993226;28;20039;-76
2023/09/14 03:27:02;;;;;;;2.55;1.55;;;18.80;67.60;;;;;;4977076;28;20037;-77
2023/09/14 03:29:28;;;;;;;2.17;1.30;;;18.80;67.60;;;;;;4993709;28;20362;-77
2023/09/14 03:31:54;;;;;;;1.73;1.23;;;18.80;67.60;;;;;;4993278;28;20038;-78
2023/09/14 03:34:20;;;;;;;1.65;1.15;;;18.70;67.60;;;;;;4993314;28;20052;-76
2023/09/14 03:36:47;;;;;;;1.85;1.20;;;18.80;67.70;;;;;;4977275;28;20034;-76
2023/09/14 03:39:15;;;;;;;2.72;1.70;;;18.70;67.70;;;;;;4992872;28;20055;-77
2023/09/14 03:41:41;;;;;;;2.28;1.40;;;18.70;67.60;;;;;;4961231;28;20034;-78
2023/09/14 03:44:07;;;;;;;3.20;1.33;;;18.70;67.70;;;;;;4976924;28;20080;-78
2023/09/14 03:46:32;;;;;;;2.33;1.30;;;18.70;67.70;;;;;;5009418;28;20082;-76
2023/09/14 03:48:58;;;;;;;2.42;1.73;;;18.60;67.60;;;;;;4961160;28;20451;-77
2023/09/14 03:51:24;;;;;;;2.05;1.20;;;18.60;67.70;;;;;;4992941;28;20065;-78
2023/09/14 03:53:50;;;;;;;2.55;1.27;;;18.60;67.70;;;;;;5009974;28;20100;-76
2023/09/14 03:56:16;;;;;;;1.98;1.17;;;18.60;67.70;;;;;;5009945;28;20038;-76
2023/09/14 03:58:42;;;;;;;2.30;1.63;;;18.60;67.70;;;;;;4977057;28;20030;-76
2023/09/14 04:01:09;;;;;;;3.22;1.70;;;18.50;67.70;;;;;;4995207;28;20026;-76
2023/09/14 04:03:34;;;;;;;2.42;1.38;;;18.50;67.70;;;;;;5014316;28;20065;-78
2023/09/14 04:06:00;;;;;;;1.77;1.40;;;18.50;67.70;;;;;;4996702;28;20487;-77
2023/09/14 04:08:26;;;;;;;2.50;1.40;;;18.50;67.70;;;;;;5013096;28;20038;-77
2023/09/14 04:10:52;;;;;;;2.33;1.40;;;18.50;67.70;;;;;;4980439;28;20045;-76
2023/09/14 04:13:26;;;;;;;2.35;1.40;;;18.40;67.70;;;;;;4980160;28;20038;-75
2023/09/14 04:15:53;;;;;;;1.73;1.20;;;18.40;67.80;;;;;;5013071;28;20134;-77
2023/09/14 04:18:19;;;;;;;2.22;1.40;;;18.40;67.70;;;;;;5013103;28;20030;-76
2023/09/14 04:20:47;;;;;;;2.85;1.50;;;18.40;67.70;;;;;;5012861;28;20482;-76
2023/09/14 04:23:13;;;;;;;2.22;1.40;;;18.40;67.80;;;;;;5012545;28;20505;-76
2023/09/14 04:25:44;;;;;;;1.38;1.20;;;18.30;67.70;;;;;;4996473;28;20034;-76
2023/09/14 04:28:15;;;;;;;1.83;1.20;;;18.30;67.80;;;;;;4984605;28;20053;-77
2023/09/14 04:30:43;;;;;;;2.00;1.60;;;18.30;67.80;;;;;;5015867;28;20073;-77
2023/09/14 04:33:14;;;;;;;2.50;1.60;;;18.30;67.80;;;;;;4983339;28;20483;-78
2023/09/14 04:35:40;;;;;;;1.98;1.42;;;18.20;67.80;;;;;;4984104;28;20037;-76
2023/09/14 04:38:07;;;;;;;1.60;1.40;;;18.20;67.80;;;;;;4999808;28;20037;-77
2023/09/14 04:40:43;;;;;;;2.92;1.60;;;18.20;67.80;;;;;;5016032;28;20030;-77
2023/09/14 04:43:10;;;;;;;1.77;1.52;;;18.20;67.90;;;;;;5000278;28;20038;-77
2023/09/14 04:45:36;;;;;;;2.35;1.50;;;18.20;67.90;;;;;;4999455;28;20080;-78
2023/09/14 04:48:03;;;;;;;2.20;1.38;;;18.10;67.80;;;;;;4999624;28;20038;-77
2023/09/14 04:50:29;;;;;;;2.22;1.48;;;18.10;67.90;;;;;;4983802;28;20034;-77
2023/09/14 04:52:55;;;;;;;1.60;1.40;;;18.10;67.90;;;;;;4983024;28;20088;-77
2023/09/14 04:55:22;;;;;;;3.40;1.50;;;18.10;67.90;;;;;;4999987;28;20021;-78
2023/09/14 04:57:47;;;;;;;2.53;1.50;;;18.10;67.90;;;;;;5016252;28;20030;-76
2023/09/14 05:00:14;;;;;;;1.88;1.40;;;18.00;67.90;;;;;;4983578;28;20034;-78
2023/09/14 05:02:40;;;;;;;2.63;1.63;;;18.00;67.90;;;;;;4951349;28;20034;-77
2023/09/14 05:05:08;;;;;;;2.42;1.50;;;18.00;67.90;;;;;;4999301;28;20356;-79
2023/09/14 05:07:34;;;;;;;1.85;1.40;;;18.00;68.30;;;;;;4950855;28;20034;-77
2023/09/14 05:10:00;;;;;;;2.47;1.52;;;18.00;68.00;;;;;;4998944;28;20108;-77
2023/09/14 05:12:27;;;;;;;2.53;1.52;;;17.90;68.00;;;;;;5014727;28;20033;-77
2023/09/14 05:14:53;;;;;;;2.45;1.58;;;17.90;68.00;;;;;;4998745;28;20034;-78
2023/09/14 05:17:18;;;;;;;1.88;1.33;;;17.90;68.00;;;;;;4998999;28;20099;-77
2023/09/14 05:19:44;;;;;;;1.90;1.60;;;17.90;68.00;;;;;;4982671;28;20120;-78
2023/09/14 05:22:10;;;;;;;2.05;1.52;;;17.80;68.00;;;;;;4982784;28;20034;-77
2023/09/14 05:24:39;;;;;;;2.78;1.55;;;17.80;68.00;;;;;;5015227;28;20037;-77
2023/09/14 05:27:06;;;;;;;1.80;1.55;;;17.80;68.10;;;;;;5015630;28;20534;-77
2023/09/14 05:29:32;;;;;;;2.35;1.73;;;17.80;68.10;;;;;;5016012;28;20427;-76
2023/09/14 05:31:58;;;;;;;3.17;1.52;;;17.80;68.10;;;;;;4998572;28;20117;-77
2023/09/14 05:34:24;;;;;;;1.92;1.52;;;17.80;68.10;;;;;;4998608;28;20153;-77
2023/09/14 05:36:50;;;;;;;2.55;1.60;;;17.70;68.10;;;;;;4982248;28;20180;-76
2023/09/14 05:39:17;;;;;;;3.28;1.60;;;17.70;68.70;;;;;;4998589;28;20044;-77
2023/09/14 05:41:43;;;;;;;1.85;1.60;;;17.70;68.10;;;;;;4982523;28;20030;-79
2023/09/14 05:44:10;;;;;;;2.75;1.73;;;17.70;68.20;;;;;;4967135;28;20044;-77
2023/09/14 05:46:37;;;;;;;2.42;1.67;;;17.70;68.20;;;;;;4982207;28;20041;-77
2023/09/14 05:49:03;;;;;;;3.53;1.70;;;17.70;68.90;;;;;;4982419;28;20487;-78
2023/09/14 05:51:29;;;;;;;2.17;1.60;;;17.60;68.20;;;;;;4982743;28;20037;-76
2023/09/14 05:53:56;;;;;;;3.53;1.55;;;17.60;68.20;;;;;;4966756;28;20054;-78
2023/09/14 05:56:24;;;;;;;2.13;1.60;;;17.60;68.20;;;;;;4982209;28;20041;-78
2023/09/14 05:58:49;;;;;;;2.60;1.55;;;17.60;68.30;;;;;;4981805;28;20026;-79
2023/09/14 06:01:15;;;;;;;2.33;1.65;;;17.60;68.30;;;;;;4998054;28;20068;-79
2023/09/14 06:03:41;;;;;;;1.73;1.30;;;17.60;68.30;;;;;;4997976;28;20137;-78
2023/09/14 06:06:07;;;;;;;2.58;1.67;;;17.50;68.30;;;;;;5014372;28;20080;-80
2023/09/14 06:08:33;;;;;;;2.33;1.58;;;17.50;68.30;;;;;;4997790;28;20461;-79
2023/09/14 06:11:00;;;;;;;2.40;1.60;;;17.50;68.40;;;;;;4981709;28;20073;-78
2023/09/14 06:13:26;;;;;;;2.47;1.50;;;17.50;68.50;;;;;;4981645;28;20379;-79
2023/09/14 06:15:52;;;;;;;2.95;1.77;;;17.50;68.50;;;;;;5015362;28;20116;-83
2023/09/14 06:18:18;;;;;;;2.10;1.55;;;17.50;68.50;;;;;;4949690;28;20030;-86
2023/09/14 06:20:44;;;;;;;3.20;1.83;;;17.50;68.50;;;;;;4982401;28;20113;-77
2023/09/14 06:23:10;;;;;;;3.92;1.77;;;17.50;68.50;;;;;;4996681;28;20042;-79
2023/09/14 06:25:36;;;;;;;2.17;1.58;;;17.50;68.50;;;;;;4997537;28;20041;-79
2023/09/14 06:28:01;;;;;;;2.30;1.45;;;17.50;68.60;;;;;;5014738;28;20030;-79
2023/09/14 06:30:27;;;;;;;2.30;1.60;;;17.50;68.60;;;;;;5015392;28;20049;-79
2023/09/14 06:32:54;;;;;;;2.22;1.65;;;17.50;68.60;;;;;;4981929;28;20038;-78
2023/09/14 06:35:20;;;;;;;2.55;1.60;;;17.50;68.70;;;;;;4981274;28;20033;-79
2023/09/14 06:37:46;;;;;;;3.47;1.73;;;17.40;68.60;;;;;;5014617;28;20150;-78
2023/09/14 06:40:11;;;;;;;2.35;1.90;;;17.40;68.70;;;;;;5013801;28;20077;-80
2023/09/14 06:42:37;;;;;;;3.03;1.50;;;17.40;68.70;;;;;;4997375;28;20364;-78
2023/09/14 06:45:06;;;;;;;2.13;1.48;;;17.40;68.70;;;;;;4997047;28;20034;-76
2023/09/14 06:47:32;;;;;;;2.75;1.80;;;17.50;68.80;;;;;;4981137;28;20061;-81
2023/09/14 06:49:58;;;;;;;2.65;1.73;;;17.40;68.80;;;;;;4980363;28;20034;-77
2023/09/14 06:52:23;;;;;;;2.28;1.55;;;17.40;68.80;;;;;;4980322;28;20060;-78
2023/09/14 06:54:49;;;;;;;2.65;1.65;;;17.50;68.80;;;;;;5012870;28;20113;-77
2023/09/14 06:57:16;;;;;;;2.95;1.90;;;17.50;68.90;;;;;;5013069;28;20044;-77
2023/09/14 06:59:41;;;;;;;3.50;1.63;;;17.40;68.80;;;;;;4980439;28;20045;-81
2023/09/14 07:02:08;;;;;;;2.55;1.60;;;17.50;68.90;;;;;;4980736;28;20582;-79
2023/09/14 07:04:34;;;;;;;3.33;2.00;;;17.50;68.90;;;;;;4997510;28;20060;-78
2023/09/14 07:07:00;;;;;;;2.25;1.77;;;17.50;68.90;;;;;;5014166;28;20030;-78
2023/09/14 07:09:26;;;;;;;4.30;1.88;;;17.50;68.90;;;;;;4980336;28;20046;-78
2023/09/14 07:11:52;;;;;;;2.70;1.58;;;17.50;68.90;;;;;;4981203;28;20076;-77
2023/09/14 07:14:17;;;;;;;2.28;1.48;;;17.50;68.90;;;;;;4996592;28;20041;-78
2023/09/14 07:16:43;;;;;;;2.28;1.40;;;17.50;68.90;;;;;;5012296;28;20030;-78
2023/09/14 07:19:09;;;;;;;2.92;1.70;;;17.50;69.50;;;;;;4980068;28;20034;-80
2023/09/14 07:21:37;;;;;;;3.33;1.60;;;17.50;68.90;;;;;;4980714;28;20029;-80
2023/09/14 07:24:07;;;;;;;3.60;1.80;;;17.50;68.90;;;;;;4996667;28;20041;-81
2023/09/14 07:26:34;;;;;;;2.72;1.83;;;17.50;69.00;;;;;;5012352;28;20120;-80
2023/09/14 07:29:00;;;;;;;2.55;1.60;;;17.60;69.00;;;;;;4996791;28;20420;-80
2023/09/14 07:31:26;;;;;;;1.77;1.50;;;17.60;69.00;;;;;;4964360;28;20116;-80
2023/09/14 07:33:52;;;;;;;3.35;1.65;;;17.60;69.00;;;;;;4979854;28;20060;-78
2023/09/14 07:36:18;;;;;;;2.00;1.58;;;17.60;69.00;;;;;;4980105;28;20045;-79
2023/09/14 07:38:44;;;;;;;2.72;1.60;;;17.60;69.00;;;;;;4996576;28;20455;-79
2023/09/14 07:41:11;;;;;;;1.83;1.42;;;17.60;69.00;;;;;;5014539;28;20026;-79
2023/09/14 07:43:37;;;;;;;3.03;1.90;;;17.60;69.00;;;;;;4996567;28;20034;-79
2023/09/14 07:46:02;;;;;;;2.67;1.70;;;17.60;68.90;;;;;;5013885;28;20080;-79
2023/09/14 07:48:28;;;;;;;2.47;1.65;;;17.70;69.00;;;;;;4979754;28;20140;-81
2023/09/14 07:50:54;;;;;;;2.78;1.70;;;17.70;69.60;;;;;;4979833;28;20026;-78
2023/09/14 07:53:20;;;;;;;2.85;1.50;;;17.70;69.00;;;;;;4979637;28;20072;-78
2023/09/14 07:55:52;;;;;;;2.00;1.42;;;17.70;69.00;;;;;;4979640;28;20065;-79
2023/09/14 07:58:20;;;;;;;3.85;1.60;;;17.70;69.00;;;;;;4996143;28;20359;-79
2023/09/14 08:00:48;;;;;;;2.08;1.42;;;17.70;68.90;;;;;;5014043;28;20038;-78
2023/09/14 08:03:14;;;;;;;3.13;1.73;;;17.70;68.90;;;;;;4979528;28;20045;-78
2023/09/14 08:05:41;;;;;;;2.17;1.58;;;17.80;69.00;;;;;;5012857;28;20113;-79
2023/09/14 08:08:08;;;;;;;1.80;1.27;;;17.80;69.00;;;;;;4964375;28;20034;-78
2023/09/14 08:10:33;;;;;;;2.08;1.60;;;17.80;69.00;;;;;;5011913;28;20041;-79
2023/09/14 08:13:00;;;;;;;2.47;1.55;;;17.80;69.00;;;;;;4979635;28;20390;-78
2023/09/14 08:15:27;;;;;;;2.97;1.88;;;17.80;69.00;;;;;;4964557;28;20467;-79
2023/09/14 08:17:53;;;;;;;2.28;1.52;;;17.90;69.00;;;;;;4979431;28;20029;-80
2023/09/14 08:20:19;;;;;;;1.98;1.55;;;17.90;69.00;;;;;;5012335;28;20053;-80
2023/09/14 08:22:44;;;;;;;2.95;1.60;;;17.90;69.00;;;;;;4995883;28;20048;-79
2023/09/14 08:25:10;;;;;;;3.53;1.85;;;17.90;69.00;;;;;;4996015;28;20042;-79
2023/09/14 08:27:39;;;;;;;2.70;1.63;;;17.90;69.00;;;;;;4979204;28;20038;-82
2023/09/14 08:30:08;;;;;;;1.95;1.52;;;18.00;69.10;;;;;;4995320;28;20137;-79
2023/09/14 08:32:34;;;;;;;2.35;1.60;;;18.00;69.00;;;;;;4996088;28;20426;-79
2023/09/14 08:35:19;;;;;;;2.65;1.63;;;18.00;69.00;;;;;;4979348;28;20034;-78
2023/09/14 08:37:45;;;;;;;;;;;18.00;69.10;;;;;;4996636;28;20455;-79
2023/09/14 08:40:13;;;;;;;1.75;1.35;;;18.10;68.70;;;;;;4979293;28;19913;-79
2023/09/14 08:42:41;;;;;;;2.28;1.48;;;18.10;68.80;;;;;;4995413;28;20034;-78
2023/09/14 08:45:10;;;;;;;1.77;1.40;;;18.10;68.80;;;;;;5013333;28;20053;-79
2023/09/14 08:47:40;;;;;;;2.35;1.55;;;18.10;68.80;;;;;;5015594;28;20030;-80
2023/09/14 08:50:07;;;;;;;2.22;1.30;;;18.20;69.00;;;;;;4999109;28;20121;-79
2023/09/14 08:52:34;;;;;;;1.98;1.40;;;18.20;68.80;;;;;;4999083;28;20062;-80
2023/09/14 08:55:01;;;;;;;2.50;1.50;;;18.20;68.80;;;;;;5015407;28;20040;-81
2023/09/14 08:57:27;;;;;;;1.45;1.15;;;18.30;68.80;;;;;;5015177;28;20041;-81
2023/09/14 08:59:59;;;;;;;2.45;1.60;;;18.40;68.80;;;;;;4998914;28;20061;-79
2023/09/14 09:02:27;;;;;;;2.58;1.70;;;18.40;68.70;;;;;;5015728;28;20083;-78
2023/09/14 09:04:53;;;;;;;2.05;1.30;;;18.50;68.70;;;;;;4998952;28;20033;-79
2023/09/14 09:07:20;;;;;;;1.75;1.38;;;18.50;68.60;;;;;;4998800;28;20390;-80
2023/09/14 09:09:49;;;;;;;2.95;1.60;;;18.60;68.50;;;;;;4967304;28;20091;-81
2023/09/14 09:12:14;;;;;;;3.05;1.60;;;18.70;68.50;;;;;;4999117;28;20026;-77
2023/09/14 09:14:43;;;;;;;2.40;1.42;;;18.70;68.30;;;;;;4999388;28;20045;-78
2023/09/14 09:17:09;;;;;;;1.88;1.60;;;18.80;68.30;;;;;;5015171;28;20033;-80
2023/09/14 09:19:49;;;;;;;3.00;1.70;;;18.80;68.10;;;;;;4998843;28;20482;-80
2023/09/14 09:22:15;;;;;;;2.13;1.38;;;18.90;68.20;;;;;;4999281;28;20034;-80
2023/09/14 09:24:41;;;;;;;3.15;1.70;;;19.00;67.90;;;;;;4998717;28;20478;-80
2023/09/14 09:27:26;;;;;;;1.80;1.30;;;19.10;67.90;;;;;;4983253;28;20038;-80
2023/09/14 09:29:59;;;;;;;3.25;1.70;;;19.20;67.90;;;;;;4998725;28;20045;-79
2023/09/14 09:32:25;;;;;;;2.35;1.73;;;19.20;67.80;;;;;;5015096;28;20041;-79
2023/09/14 09:34:51;;;;;;;1.95;1.40;;;19.30;67.70;;;;;;4998312;28;20034;-79
2023/09/14 09:37:17;;;;;;;2.65;1.63;;;19.40;67.60;;;;;;4982299;28;20062;-79
2023/09/14 09:39:44;;;;;;;2.85;1.38;;;19.40;67.50;;;;;;4999061;28;20076;-79
2023/09/14 09:42:13;;;;;;;2.55;1.50;;;19.50;67.40;;;;;;4998562;28;20042;-79
2023/09/14 09:44:39;;;;;;;2.58;1.55;;;19.60;67.40;;;;;;5015709;28;20049;-79
2023/09/14 09:47:05;;;;;;;3.03;1.65;;;19.60;67.30;;;;;;4998570;28;20026;-79
2023/09/14 09:49:31;;;;;;;2.65;1.65;;;19.70;67.30;;;;;;4998197;28;20034;-78
2023/09/14 09:51:57;;;;;;;3.35;1.73;;;19.80;67.20;;;;;;4997765;28;20033;-80
2023/09/14 09:54:24;;;;;;;2.05;1.40;;;19.80;67.20;;;;;;5014742;28;20049;-80
2023/09/14 09:56:52;;;;;;;2.92;1.60;;;19.90;67.10;;;;;;4982002;28;20034;-78
2023/09/14 09:59:18;;;;;;;2.17;1.50;;;20.00;67.10;;;;;;4997999;28;20034;-79
2023/09/14 10:01:51;;;;;;;2.70;1.42;;;20.00;67.00;;;;;;5014612;28;20041;-79
2023/09/14 10:04:17;;;;;;;2.78;1.65;;;20.10;67.00;;;;;;4997670;28;20105;-79
2023/09/14 10:06:55;;;;;;;3.50;1.75;;;20.20;66.90;;;;;;4998156;28;20032;-79
2023/09/14 10:09:22;;;;;;;2.50;1.55;;;20.30;67.00;;;;;;4982002;28;20030;-79
2023/09/14 10:11:51;;;;;;;3.75;1.88;;;20.40;66.80;;;;;;4982182;28;20029;-79
2023/09/14 10:14:20;;;;;;;2.47;1.60;;;20.40;66.80;;;;;;4982516;28;20049;-79
2023/09/14 10:16:49;;;;;;;2.45;1.58;;;20.50;66.80;;;;;;5015358;28;20034;-79
2023/09/14 10:19:18;;;;;;;2.58;1.48;;;20.60;66.80;;;;;;4997634;28;20022;-79
2023/09/14 10:21:46;;;;;;;2.13;1.40;;;20.70;66.70;;;;;;5015078;28;20026;-79
2023/09/14 10:24:13;;;;;;;4.00;1.52;;;20.70;66.60;;;;;;4997535;28;20030;-79
2023/09/14 10:26:39;;;;;;;2.10;1.60;;;20.80;66.50;;;;;;4997572;28;20117;-79
2023/09/14 10:29:07;;;;;;;2.58;1.80;;;20.90;66.60;;;;;;5013304;28;20078;-78
2023/09/14 10:31:34;;;;;;;2.22;1.60;;;21.00;66.50;;;;;;4981505;28;20037;-79
2023/09/14 10:34:00;;;;;;;2.05;1.50;;;21.10;66.50;;;;;;4997248;28;20100;-79
2023/09/14 10:36:31;;;;;;;2.05;1.35;;;21.10;66.30;;;;;;4997185;28;20034;-79
2023/09/14 10:39:00;;;;;;;2.05;1.40;;;21.20;66.30;;;;;;4997120;28;20030;-79
2023/09/14 10:41:27;;;;;;;2.88;1.58;;;21.30;66.20;;;;;;4996943;28;20038;-79
2023/09/14 10:43:54;;;;;;;2.85;1.42;;;21.30;66.00;;;;;;4997576;28;20133;-79
2023/09/14 10:46:28;;;;;;;3.05;1.88;;;21.50;66.10;;;;;;4997170;28;20037;-79
2023/09/14 10:48:56;;;;;;;2.50;1.63;;;21.50;66.00;;;;;;4997382;28;20072;-79
2023/09/14 10:51:23;;;;;;;2.70;1.40;;;21.60;66.00;;;;;;4998063;28;20033;-79
2023/09/14 10:53:51;;;;;;;2.67;1.50;;;21.70;66.00;;;;;;5013157;28;20484;-79
2023/09/14 10:56:31;;;;;;;1.80;1.25;;;21.70;66.00;;;;;;5013339;28;20394;-78
2023/09/14 10:58:58;;;;;;;2.30;1.60;;;21.70;66.00;;;;;;4997179;28;20032;-79
2023/09/14 11:01:25;;;;;;;1.75;1.27;;;21.80;66.00;;;;;;4980925;28;20363;-79
2023/09/14 11:04:13;;;;;;;2.65;1.50;;;21.90;66.00;;;;;;4997146;28;20045;-79
2023/09/14 11:06:49;;;;;;;2.38;1.48;;;21.90;66.10;;;;;;5013469;28;20065;-79
2023/09/14 11:09:15;;;;;;;2.10;1.50;;;21.90;66.10;;;;;;5012949;28;20045;-79
2023/09/14 11:11:43;;;;;;;2.95;1.67;;;22.00;66.10;;;;;;4980764;28;20080;-79
2023/09/14 11:14:13;;;;;;;3.15;1.70;;;22.00;66.20;;;;;;5013916;28;20038;-79
2023/09/14 11:16:44;;;;;;;2.33;1.52;;;22.00;66.20;;;;;;4996444;28;20102;-80
2023/09/14 11:19:10;;;;;;;2.78;1.60;;;22.00;66.30;;;;;;4996818;28;20029;-79
2023/09/14 11:21:35;;;;;;;2.88;1.60;;;22.10;66.30;;;;;;4980746;28;20026;-79
2023/09/14 11:24:05;;;;;;;2.25;1.35;;;22.10;66.40;;;;;;4996475;28;20038;-79
2023/09/14 11:26:32;;;;;;;1.55;1.30;;;22.10;66.40;;;;;;5014403;28;20462;-79
2023/09/14 11:28:58;;;;;;;2.28;1.70;;;22.10;66.40;;;;;;4997084;28;20037;-79
2023/09/14 11:31:32;;;;;;;1.95;1.35;;;22.10;66.40;;;;;;4996819;28;20034;-79
2023/09/14 11:34:05;;;;;;;2.07;1.40;;;22.20;66.50;;;;;;4996513;28;20487;-80
2023/09/14 11:36:34;;;;;;;1.70;1.42;;;22.20;66.50;;;;;;5012985;28;20276;-80
2023/09/14 11:39:08;;;;;;;2.15;1.52;;;22.20;66.50;;;;;;5012707;28;20070;-79
2023/09/14 11:41:55;;;;;;;2.85;1.55;;;22.20;66.50;;;;;;5012916;28;20029;-79
2023/09/14 11:44:21;;;;;;;2.20;1.40;;;22.30;66.60;;;;;;5013898;28;20073;-79
2023/09/14 11:46:49;;;;;;;2.40;1.42;;;22.20;66.50;;;;;;4996324;28;20065;-79
2023/09/14 11:49:28;;;;;;;2.55;1.67;;;22.30;66.60;;;;;;4980034;28;20058;-78
2023/09/14 11:51:54;;;;;;;2.33;1.70;;;22.30;66.60;;;;;;4996252;28;20058;-79
2023/09/14 11:54:20;;;;;;;2.05;1.50;;;22.30;66.60;;;;;;4996574;28;20455;-79
2023/09/14 11:56:48;;;;;;;2.35;1.55;;;22.30;66.60;;;;;;4996122;28;20065;-79
2023/09/14 11:59:30;;;;;;;2.47;1.70;;;22.40;66.60;;;;;;5013970;28;20092;-80
2023/09/14 12:01:57;;;;;;;2.30;1.48;;;22.40;66.70;;;;;;4980768;28;20038;-79
2023/09/14 12:04:27;;;;;;;2.70;1.70;;;22.40;66.60;;;;;;5013935;28;20034;-79
2023/09/14 12:06:55;;;;;;;1.63;1.52;;;22.40;66.60;;;;;;4980524;28;20030;-79
2023/09/14 12:09:34;;;;;;;1.85;1.42;;;22.40;66.60;;;;;;4996227;28;20034;-79
2023/09/14 12:12:00;;;;;;;3.15;1.67;;;22.40;66.60;;;;;;4996012;28;20117;-79
2023/09/14 12:14:40;;;;;;;2.22;1.58;;;22.50;66.60;;;;;;5013318;28;20435;-78
2023/09/14 12:17:23;;;;;;;2.92;1.67;;;22.50;66.70;;;;;;4996713;28;20352;-79
2023/09/14 12:19:55;;;;;;;2.35;1.60;;;22.50;66.60;;;;;;5013358;28;20088;-79
2023/09/14 12:22:23;;;;;;;1.45;1.35;;;22.50;66.60;;;;;;5014734;28;20065;-79
2023/09/14 12:24:50;;;;;;;2.42;1.35;;;22.60;66.60;;;;;;5017345;28;20038;-79
2023/09/14 12:27:17;;;;;;;1.75;1.23;;;22.60;66.60;;;;;;4983136;28;20052;-78
2023/09/14 12:29:45;;;;;;;1.52;1.17;;;22.60;66.60;;;;;;5015966;28;20054;-78
2023/09/14 12:32:12;;;;;;;1.90;1.40;;;22.60;66.50;;;;;;4984119;28;20168;-79
2023/09/14 12:34:38;;;;;;;1.60;1.48;;;22.60;66.50;;;;;;5000032;28;20493;-79
2023/09/14 12:37:04;;;;;;;2.67;1.70;;;22.70;66.50;;;;;;4983561;28;20065;-80
2023/09/14 12:39:29;;;;;;;1.83;1.40;;;22.70;66.50;;;;;;5017404;28;20034;-79
2023/09/14 12:41:58;;;;;;;3.30;1.60;;;22.70;66.40;;;;;;4983479;28;20041;-78
2023/09/14 12:44:24;;;;;;;3.78;1.60;;;22.70;66.40;;;;;;5015677;28;20036;-78
2023/09/14 12:46:53;;;;;;;2.45;1.58;;;22.70;66.40;;;;;;4967133;28;20378;-79
2023/09/14 12:49:19;;;;;;;2.50;1.60;;;22.80;66.40;;;;;;4999402;28;20030;-79